Buoy 43528

sailwx.info

Track history (hours):
 
Tides and Currents Weather Stations Pressure Air Temp Water Temp Dewpoint Dewpoint Depression Visibility Wind Speed Wind Dir Waves Ship Positions

Drifting buoy 43528

Last reported at 2014-Oct-31 17:00 UTC. Time now 2014-Oct-31 19:25 UTC.
Position N 13°51' W 126°09'.

Water temperature 27.5 ° C

Date/timePositionNaut miles runAvg speedWind from/ knotsBaromVisibWave heightAir tempDewpointWater temp
2014-Oct-31 17:00N 13°51' W 126°09'0 0.0 27.5
2014-Oct-31 16:00N 13°51' W 126°09'0 0.2 27.5
2014-Oct-31 14:00N 13°51' W 126°09'3 1.3 27.5
2014-Oct-31 12:00N 13°51' W 126°06'0 0.0 27.5
2014-Oct-31 11:00N 13°51' W 126°06'1 1.2 27.5
2014-Oct-31 10:00N 13°51' W 126°05'3 0.5 27.5
2014-Oct-31 03:00N 13°51' W 126°02'0 0.0 27.5
2014-Oct-31 02:00N 13°51' W 126°02'2 0.9 27.5
2014-Oct-31 00:00N 13°51' W 126°00'0 0.2 27.5
2014-Oct-30 22:00N 13°51' W 125°60'3 0.9 27.5
2014-Oct-30 19:00N 13°52' W 125°57'0 0.1 27.5
2014-Oct-30 18:00N 13°52' W 125°57'1 1.0 27.5
2014-Oct-30 17:00N 13°53' W 125°57'3 0.8 27.5
2014-Oct-30 14:00N 13°54' W 125°55'1 0.6 27.5
2014-Oct-30 12:00N 13°55' W 125°54'1 0.6 27.6
2014-Oct-30 10:00N 13°56' W 125°53'0 0.1 27.6
2014-Oct-30 06:00N 13°56' W 125°53'0 0.3 27.6
2014-Oct-30 05:00N 13°56' W 125°53'1 0.9 27.6
2014-Oct-30 04:00N 13°57' W 125°53'0 0.0 27.6
2014-Oct-30 03:00N 13°57' W 125°53'0 0.2 27.6
2014-Oct-30 01:00N 13°57' W 125°53'0 0.2 27.6
2014-Oct-29 23:00N 13°57' W 125°53'0 0.0 27.7
2014-Oct-29 22:00N 13°57' W 125°53'3 0.6 27.6
2014-Oct-29 18:00N 13°57' W 125°50'1 0.9 27.6
2014-Oct-29 17:00N 13°56' W 125°50'1 0.8 27.5
2014-Oct-29 16:00N 13°56' W 125°49'2 0.7 27.5
2014-Oct-29 13:00N 13°56' W 125°47'0 0.1 27.5
2014-Oct-29 11:00N 13°56' W 125°46'2 1.7 27.5
2014-Oct-29 10:00N 13°54' W 125°45'0 0.0 27.6
2014-Oct-29 09:00N 13°54' W 125°45'3 0.9 27.6
2014-Oct-29 06:00N 13°54' W 125°43'0 0.4 27.6
2014-Oct-29 05:00N 13°54' W 125°42'2 0.7 27.6
2014-Oct-29 02:00N 13°54' W 125°40'1 0.6 27.7
2014-Oct-29 01:00N 13°54' W 125°40'0 0.4 27.7
2014-Oct-29 00:00N 13°53' W 125°39'3 1.5 27.7
2014-Oct-28 22:00N 13°53' W 125°36'1 0.9 27.8
2014-Oct-28 21:00N 13°54' W 125°35'2 1.0 27.7
2014-Oct-28 19:00N 13°54' W 125°33'1 1.0 27.7
2014-Oct-28 18:00N 13°53' W 125°32'0 0.2 27.7
2014-Oct-28 17:00N 13°53' W 125°32'4 0.9 27.7
2014-Oct-28 13:00N 13°53' W 125°28'3 1.3 27.7
2014-Oct-28 11:00N 13°52' W 125°26'1 1.5 27.7
2014-Oct-28 10:00N 13°53' W 125°27'1 1.5 27.7
2014-Oct-28 09:00N 13°52' W 125°26'0 0.0 27.7
2014-Oct-28 08:00N 13°52' W 125°26'2 0.4 27.8
2014-Oct-28 02:00N 13°51' W 125°24'0 0.0 27.9
2014-Oct-28 01:00N 13°51' W 125°24'3 0.9 27.9
2014-Oct-27 22:00N 13°50' W 125°21'2 1.1 27.9
2014-Oct-27 20:00N 13°49' W 125°19'1 0.7 27.9
2014-Oct-27 19:00N 13°49' W 125°19'0 0.0 27.9
2014-Oct-27 18:00N 13°49' W 125°19'2 1.9 27.9
2014-Oct-27 17:00N 13°47' W 125°18'0 0.0 27.9
2014-Oct-27 16:00N 13°47' W 125°18'0 0.2 27.9
2014-Oct-27 14:00N 13°47' W 125°18'2 1.9 27.9
2014-Oct-27 13:00N 13°46' W 125°16'1 0.4 27.9
2014-Oct-27 11:00N 13°45' W 125°16'0 0.2 27.9
2014-Oct-27 10:00N 13°45' W 125°15'2 2.3 27.9
2014-Oct-27 09:00N 13°44' W 125°13'1 0.2 27.9
2014-Oct-27 03:00N 13°44' W 125°12'3 0.5 28.0
2014-Oct-26 22:00N 13°42' W 125°10'1 1.1 28.1
2014-Oct-26 21:00N 13°41' W 125°10'0 0.0 28.1
2014-Oct-26 20:00N 13°41' W 125°10'3 1.3 28.0
2014-Oct-26 18:00N 13°40' W 125°08'2 1.5 27.9
2014-Oct-26 17:00N 13°38' W 125°07'1 0.3 27.9
2014-Oct-26 14:00N 13°38' W 125°06'0 0.4 27.8
2014-Oct-26 13:00N 13°38' W 125°06'0 0.3 27.8
2014-Oct-26 12:00N 13°37' W 125°06'0 0.2 27.9
2014-Oct-26 11:00N 13°37' W 125°06'1 0.8 27.9
2014-Oct-26 10:00N 13°37' W 125°05'3 3.0 28.0
2014-Oct-26 09:00N 13°36' W 125°02'0 0.0 28.0
2014-Oct-26 06:00N 13°36' W 125°02'2 0.4 28.1
2014-Oct-26 01:00N 13°34' W 125°01'1 0.4 28.5
2014-Oct-25 22:00N 13°33' W 125°00'0 0.2 28.6
2014-Oct-25 21:00N 13°33' W 125°00'1 0.8 28.4
2014-Oct-25 20:00N 13°33' W 124°60'1 0.7 28.2
2014-Oct-25 19:00N 13°33' W 124°59'0 0.0 28.1
2014-Oct-25 18:00N 13°33' W 124°59'0 0.0 27.9
2014-Oct-25 17:00N 13°33' W 124°59'2 1.6 27.8
2014-Oct-25 16:00N 13°31' W 124°59'1 0.7 27.8
2014-Oct-25 15:00N 13°32' W 124°58'0 0.1 27.8
2014-Oct-25 13:00N 13°32' W 124°59'0 0.2 27.8
2014-Oct-25 12:00N 13°32' W 124°59'0 0.4 27.8
2014-Oct-25 11:00N 13°32' W 124°59'2 1.0 27.8
2014-Oct-25 09:00N 13°30' W 124°59'0 0.1 27.8
2014-Oct-25 06:00N 13°30' W 124°59'0 0.0 27.8
2014-Oct-25 05:00N 13°30' W 124°59'0 0.1 27.8
2014-Oct-25 04:00N 13°30' W 124°59'1 0.5 27.8
2014-Oct-25 02:00N 13°29' W 124°58'0 0.0 27.8
2014-Oct-25 01:00N 13°29' W 124°58'0 0.1 27.9
2014-Oct-24 23:00N 13°29' W 124°58'0 0.3 27.9
2014-Oct-24 22:00N 13°28' W 124°58'0 0.0 28.0
2014-Oct-24 21:00N 13°28' W 124°58'1 0.2 28.0
2014-Oct-24 18:00N 13°29' W 124°58'2 1.8 27.9
2014-Oct-24 17:00N 13°28' W 124°57'0 0.0 27.8
2014-Oct-24 16:00N 13°28' W 124°57'0 0.2 27.8
2014-Oct-24 14:00N 13°28' W 124°57'0 0.5 27.8
2014-Oct-24 13:00N 13°28' W 124°58'1 1.1 27.9
2014-Oct-24 12:00N 13°27' W 124°57'2 1.2 27.9
2014-Oct-24 10:00N 13°25' W 124°56'3 2.6 27.9
2014-Oct-24 09:00N 13°27' W 124°58'3 0.6 27.9
2014-Oct-24 04:00N 13°25' W 124°55'0 0.0 27.9
2014-Oct-24 03:00N 13°25' W 124°55'1 0.7 28.0
2014-Oct-24 02:00N 13°25' W 124°55'0 0.2 28.0
2014-Oct-24 01:00N 13°25' W 124°55'1 0.3 28.0
2014-Oct-23 23:00N 13°24' W 124°54'0 0.0 28.0
2014-Oct-23 22:00N 13°24' W 124°54'1 0.4 28.0
2014-Oct-23 19:00N 13°25' W 124°53'2 1.0 27.9
2014-Oct-23 17:00N 13°24' W 124°51'1 0.4 27.9
2014-Oct-23 14:00N 13°24' W 124°50'0 0.0 27.9
2014-Oct-23 13:00N 13°24' W 124°50'2 2.1 27.9
2014-Oct-23 12:00N 13°26' W 124°51'0 0.2 27.9
2014-Oct-23 10:00N 13°26' W 124°52'0 0.0 27.9
2014-Oct-23 06:00N 13°26' W 124°52'0 0.0 28.0
2014-Oct-23 03:00N 13°26' W 124°52'5 0.5 28.0
2014-Oct-22 17:00N 13°21' W 124°51'0 0.0 28.0
2014-Oct-22 16:00N 13°21' W 124°51'1 1.1 27.9
2014-Oct-22 15:00N 13°21' W 124°50'4 0.8 27.9
2014-Oct-22 10:00N 13°18' W 124°47'0 0.1 27.9
2014-Oct-22 06:00N 13°18' W 124°47'0 0.3 28.0
2014-Oct-22 05:00N 13°17' W 124°47'3 0.9 28.0
2014-Oct-22 02:00N 13°17' W 124°44'2 2.1 28.1
2014-Oct-22 01:00N 13°17' W 124°42'0 0.0 28.1
2014-Oct-22 00:00N 13°17' W 124°42'0 0.0 28.1
2014-Oct-21 22:00N 13°17' W 124°42'1 0.2 28.1
2014-Oct-21 18:00N 13°17' W 124°42'   28.0
Track history (hours):
 
Tides and Currents Weather Stations Pressure Air Temp Water Temp Dewpoint Dewpoint Depression Visibility Wind Speed Wind Dir Waves Ship Positions

Drifting buoy 43528

Last reported at 2014-Oct-31 17:00 UTC. Time now 2014-Oct-31 19:25 UTC.
Position N 13°51' W 126°09'.

Water temperature 27.5 ° C

Date/timePositionNaut miles runAvg speedWind from/ knotsBaromVisibWave heightAir tempDewpointWater temp
2014-Oct-31 17:00N 13°51' W 126°09'0 0.0 27.5
2014-Oct-31 16:00N 13°51' W 126°09'0 0.2 27.5
2014-Oct-31 14:00N 13°51' W 126°09'3 1.3 27.5
2014-Oct-31 12:00N 13°51' W 126°06'0 0.0 27.5
2014-Oct-31 11:00N 13°51' W 126°06'1 1.2 27.5
2014-Oct-31 10:00N 13°51' W 126°05'3 0.5 27.5
2014-Oct-31 03:00N 13°51' W 126°02'0 0.0 27.5
2014-Oct-31 02:00N 13°51' W 126°02'2 0.9 27.5
2014-Oct-31 00:00N 13°51' W 126°00'0 0.2 27.5
2014-Oct-30 22:00N 13°51' W 125°60'3 0.9 27.5
2014-Oct-30 19:00N 13°52' W 125°57'0 0.1 27.5
2014-Oct-30 18:00N 13°52' W 125°57'1 1.0 27.5
2014-Oct-30 17:00N 13°53' W 125°57'3 0.8 27.5
2014-Oct-30 14:00N 13°54' W 125°55'1 0.6 27.5
2014-Oct-30 12:00N 13°55' W 125°54'1 0.6 27.6
2014-Oct-30 10:00N 13°56' W 125°53'0 0.1 27.6
2014-Oct-30 06:00N 13°56' W 125°53'0 0.3 27.6
2014-Oct-30 05:00N 13°56' W 125°53'1 0.9 27.6
2014-Oct-30 04:00N 13°57' W 125°53'0 0.0 27.6
2014-Oct-30 03:00N 13°57' W 125°53'0 0.2 27.6
2014-Oct-30 01:00N 13°57' W 125°53'0 0.2 27.6
2014-Oct-29 23:00N 13°57' W 125°53'0 0.0 27.7
2014-Oct-29 22:00N 13°57' W 125°53'3 0.6 27.6
2014-Oct-29 18:00N 13°57' W 125°50'1 0.9 27.6
2014-Oct-29 17:00N 13°56' W 125°50'1 0.8 27.5
2014-Oct-29 16:00N 13°56' W 125°49'2 0.7 27.5
2014-Oct-29 13:00N 13°56' W 125°47'0 0.1 27.5
2014-Oct-29 11:00N 13°56' W 125°46'2 1.7 27.5
2014-Oct-29 10:00N 13°54' W 125°45'0 0.0 27.6
2014-Oct-29 09:00N 13°54' W 125°45'3 0.9 27.6
2014-Oct-29 06:00N 13°54' W 125°43'0 0.4 27.6
2014-Oct-29 05:00N 13°54' W 125°42'2 0.7 27.6
2014-Oct-29 02:00N 13°54' W 125°40'1 0.6 27.7
2014-Oct-29 01:00N 13°54' W 125°40'0 0.4 27.7
2014-Oct-29 00:00N 13°53' W 125°39'3 1.5 27.7
2014-Oct-28 22:00N 13°53' W 125°36'1 0.9 27.8
2014-Oct-28 21:00N 13°54' W 125°35'2 1.0 27.7
2014-Oct-28 19:00N 13°54' W 125°33'1 1.0 27.7
2014-Oct-28 18:00N 13°53' W 125°32'0 0.2 27.7
2014-Oct-28 17:00N 13°53' W 125°32'4 0.9 27.7
2014-Oct-28 13:00N 13°53' W 125°28'3 1.3 27.7
2014-Oct-28 11:00N 13°52' W 125°26'1 1.5 27.7
2014-Oct-28 10:00N 13°53' W 125°27'1 1.5 27.7
2014-Oct-28 09:00N 13°52' W 125°26'0 0.0 27.7
2014-Oct-28 08:00N 13°52' W 125°26'2 0.4 27.8
2014-Oct-28 02:00N 13°51' W 125°24'0 0.0 27.9
2014-Oct-28 01:00N 13°51' W 125°24'3 0.9 27.9
2014-Oct-27 22:00N 13°50' W 125°21'2 1.1 27.9
2014-Oct-27 20:00N 13°49' W 125°19'1 0.7 27.9
2014-Oct-27 19:00N 13°49' W 125°19'0 0.0 27.9
2014-Oct-27 18:00N 13°49' W 125°19'2 1.9 27.9
2014-Oct-27 17:00N 13°47' W 125°18'0 0.0 27.9
2014-Oct-27 16:00N 13°47' W 125°18'0 0.2 27.9
2014-Oct-27 14:00N 13°47' W 125°18'2 1.9 27.9
2014-Oct-27 13:00N 13°46' W 125°16'1 0.4 27.9
2014-Oct-27 11:00N 13°45' W 125°16'0 0.2 27.9
2014-Oct-27 10:00N 13°45' W 125°15'2 2.3 27.9
2014-Oct-27 09:00N 13°44' W 125°13'1 0.2 27.9
2014-Oct-27 03:00N 13°44' W 125°12'3 0.5 28.0
2014-Oct-26 22:00N 13°42' W 125°10'1 1.1 28.1
2014-Oct-26 21:00N 13°41' W 125°10'0 0.0 28.1
2014-Oct-26 20:00N 13°41' W 125°10'3 1.3 28.0
2014-Oct-26 18:00N 13°40' W 125°08'2 1.5 27.9
2014-Oct-26 17:00N 13°38' W 125°07'1 0.3 27.9
2014-Oct-26 14:00N 13°38' W 125°06'0 0.4 27.8
2014-Oct-26 13:00N 13°38' W 125°06'0 0.3 27.8
2014-Oct-26 12:00N 13°37' W 125°06'0 0.2 27.9
2014-Oct-26 11:00N 13°37' W 125°06'1 0.8 27.9
2014-Oct-26 10:00N 13°37' W 125°05'3 3.0 28.0
2014-Oct-26 09:00N 13°36' W 125°02'0 0.0 28.0
2014-Oct-26 06:00N 13°36' W 125°02'2 0.4 28.1
2014-Oct-26 01:00N 13°34' W 125°01'1 0.4 28.5
2014-Oct-25 22:00N 13°33' W 125°00'0 0.2 28.6
2014-Oct-25 21:00N 13°33' W 125°00'1 0.8 28.4
2014-Oct-25 20:00N 13°33' W 124°60'1 0.7 28.2
2014-Oct-25 19:00N 13°33' W 124°59'0 0.0 28.1
2014-Oct-25 18:00N 13°33' W 124°59'0 0.0 27.9
2014-Oct-25 17:00N 13°33' W 124°59'2 1.6 27.8
2014-Oct-25 16:00N 13°31' W 124°59'1 0.7 27.8
2014-Oct-25 15:00N 13°32' W 124°58'0 0.1 27.8
2014-Oct-25 13:00N 13°32' W 124°59'0 0.2 27.8
2014-Oct-25 12:00N 13°32' W 124°59'0 0.4 27.8
2014-Oct-25 11:00N 13°32' W 124°59'2 1.0 27.8
2014-Oct-25 09:00N 13°30' W 124°59'0 0.1 27.8
2014-Oct-25 06:00N 13°30' W 124°59'0 0.0 27.8
2014-Oct-25 05:00N 13°30' W 124°59'0 0.1 27.8
2014-Oct-25 04:00N 13°30' W 124°59'1 0.5 27.8
2014-Oct-25 02:00N 13°29' W 124°58'0 0.0 27.8
2014-Oct-25 01:00N 13°29' W 124°58'0 0.1 27.9
2014-Oct-24 23:00N 13°29' W 124°58'0 0.3 27.9
2014-Oct-24 22:00N 13°28' W 124°58'0 0.0 28.0
2014-Oct-24 21:00N 13°28' W 124°58'1 0.2 28.0
2014-Oct-24 18:00N 13°29' W 124°58'2 1.8 27.9
2014-Oct-24 17:00N 13°28' W 124°57'0 0.0 27.8
2014-Oct-24 16:00N 13°28' W 124°57'0 0.2 27.8
2014-Oct-24 14:00N 13°28' W 124°57'0 0.5 27.8
2014-Oct-24 13:00N 13°28' W 124°58'1 1.1 27.9
2014-Oct-24 12:00N 13°27' W 124°57'2 1.2 27.9
2014-Oct-24 10:00N 13°25' W 124°56'3 2.6 27.9
2014-Oct-24 09:00N 13°27' W 124°58'3 0.6 27.9
2014-Oct-24 04:00N 13°25' W 124°55'0 0.0 27.9
2014-Oct-24 03:00N 13°25' W 124°55'1 0.7 28.0
2014-Oct-24 02:00N 13°25' W 124°55'0 0.2 28.0
2014-Oct-24 01:00N 13°25' W 124°55'1 0.3 28.0
2014-Oct-23 23:00N 13°24' W 124°54'0 0.0 28.0
2014-Oct-23 22:00N 13°24' W 124°54'1 0.4 28.0
2014-Oct-23 19:00N 13°25' W 124°53'2 1.0 27.9
2014-Oct-23 17:00N 13°24' W 124°51'1 0.4 27.9
2014-Oct-23 14:00N 13°24' W 124°50'0 0.0 27.9
2014-Oct-23 13:00N 13°24' W 124°50'2 2.1 27.9
2014-Oct-23 12:00N 13°26' W 124°51'0 0.2 27.9
2014-Oct-23 10:00N 13°26' W 124°52'0 0.0 27.9
2014-Oct-23 06:00N 13°26' W 124°52'0 0.0 28.0
2014-Oct-23 03:00N 13°26' W 124°52'5 0.5 28.0
2014-Oct-22 17:00N 13°21' W 124°51'0 0.0 28.0
2014-Oct-22 16:00N 13°21' W 124°51'1 1.1 27.9
2014-Oct-22 15:00N 13°21' W 124°50'4 0.8 27.9
2014-Oct-22 10:00N 13°18' W 124°47'0 0.1 27.9
2014-Oct-22 06:00N 13°18' W 124°47'0 0.3 28.0
2014-Oct-22 05:00N 13°17' W 124°47'3 0.9 28.0
2014-Oct-22 02:00N 13°17' W 124°44'2 2.1 28.1
2014-Oct-22 01:00N 13°17' W 124°42'0 0.0 28.1
2014-Oct-22 00:00N 13°17' W 124°42'0 0.0 28.1
2014-Oct-21 22:00N 13°17' W 124°42'1 0.2 28.1
2014-Oct-21 18:00N 13°17' W 124°42'   28.0

Dump ship's entire track history